Terminal Aerodrome Forecast
Issued by NWS Jackson, MS

Home | Current Version | Previous Version | Text Only | Print | Product List | Glossary On
Versions: 1 2 3 4 5 6 7 8 9 10 11 12
140
FTUS44 KMEG 281132
TAFTUP
TAF
KTUP 281132Z 2812/2912 00000KT P6SM SKC
     FM281400 17008KT P6SM SCT050 SCT250
     FM290000 18005KT P6SM SKC
     FM290900 18005KT 4SM BR BKN015=

USA.gov is the U.S. government's official web portal to all federal, state and local government web resources and services.